Time;durP1;ratioP1;P1;durP2;ratioP2;P2;SDS_P1;SDS_P2;PMS_P1;PMS_P2;Temp;Humidity;BMP_temperature;BMP_pressure;BME280_temperature;BME280_humidity;BME280_pressure;Samples;Min_cycle;Max_cycle;Signal;HPM_P1;HPM_P2
2024/03/28 00:02:02;;;;;;;3.28;2.10;;;10.70;99.90;;;;;;4950615;28;20196;-73
2024/03/28 00:04:28;;;;;;;2.10;1.60;;;10.60;99.90;;;;;;4935385;29;20192;-73
2024/03/28 00:06:54;;;;;;;2.47;1.80;;;10.70;99.90;;;;;;4934156;29;20168;-73
2024/03/28 00:09:20;;;;;;;2.05;1.58;;;10.60;99.90;;;;;;4951414;28;20665;-73
2024/03/28 00:11:46;;;;;;;3.47;2.22;;;10.60;99.90;;;;;;4951122;28;20216;-73
2024/03/28 00:14:14;;;;;;;3.10;2.00;;;10.60;99.90;;;;;;4949817;28;20405;-74
2024/03/28 00:16:40;;;;;;;2.10;1.20;;;10.60;99.90;;;;;;4950983;28;20184;-73
2024/03/28 00:19:06;;;;;;;4.07;1.77;;;10.60;99.90;;;;;;4949953;28;20171;-73
2024/03/28 00:21:31;;;;;;;2.20;1.70;;;10.60;99.90;;;;;;4951336;28;20616;-73
2024/03/28 00:23:57;;;;;;;3.00;1.83;;;10.50;99.90;;;;;;4949802;28;20599;-73
2024/03/28 00:26:23;;;;;;;2.53;2.00;;;10.50;99.90;;;;;;4949533;29;20683;-73
2024/03/28 00:28:48;;;;;;;3.10;1.90;;;10.50;99.90;;;;;;4933963;29;20271;-73
2024/03/28 00:31:14;;;;;;;2.30;1.60;;;10.50;99.90;;;;;;4950781;28;20692;-73
2024/03/28 00:33:40;;;;;;;3.73;2.10;;;10.50;99.90;;;;;;4949589;28;20208;-72
2024/03/28 00:36:06;;;;;;;2.40;1.73;;;10.50;99.90;;;;;;4949290;28;20177;-73
2024/03/28 00:38:32;;;;;;;3.03;1.67;;;10.50;99.90;;;;;;4949782;29;20169;-73
2024/03/28 00:40:58;;;;;;;3.23;1.87;;;10.50;99.90;;;;;;4950841;28;20183;-73
2024/03/28 00:43:24;;;;;;;1.70;1.10;;;10.50;99.90;;;;;;4950681;28;20230;-74
2024/03/28 00:45:50;;;;;;;3.23;1.77;;;10.50;99.90;;;;;;4949317;28;21015;-73
2024/03/28 00:48:17;;;;;;;2.30;1.23;;;10.50;99.90;;;;;;4949387;28;20183;-73
2024/03/28 00:50:53;;;;;;;2.72;1.50;;;10.50;99.90;;;;;;4955496;28;20188;-73
2024/03/28 00:53:19;;;;;;;2.35;1.60;;;10.50;99.90;;;;;;4950467;28;20597;-72
2024/03/28 00:55:45;;;;;;;3.13;1.80;;;10.50;99.90;;;;;;4949108;28;20204;-73
2024/03/28 00:58:12;;;;;;;2.83;1.33;;;10.50;99.90;;;;;;4950514;28;20176;-72
2024/03/28 01:00:38;;;;;;;2.00;1.70;;;10.50;99.90;;;;;;4950544;28;21243;-72
2024/03/28 01:03:04;;;;;;;3.30;1.20;;;10.50;99.90;;;;;;4956975;28;20697;-75
2024/03/28 01:05:30;;;;;;;2.65;1.30;;;10.50;99.90;;;;;;4948787;28;20611;-74
2024/03/28 01:07:55;;;;;;;3.63;1.90;;;10.40;99.90;;;;;;4949116;28;20173;-75
2024/03/28 01:10:21;;;;;;;3.17;2.10;;;10.40;99.90;;;;;;4950378;28;20271;-72
2024/03/28 01:12:47;;;;;;;2.70;1.90;;;10.40;99.90;;;;;;4950193;28;20207;-73
2024/03/28 01:15:12;;;;;;;2.03;1.53;;;10.30;99.90;;;;;;4949363;28;20234;-74
2024/03/28 01:17:38;;;;;;;4.23;1.87;;;10.30;99.90;;;;;;4950204;28;20263;-73
2024/03/28 01:20:07;;;;;;;2.80;1.97;;;10.30;99.90;;;;;;4948961;28;20181;-73
2024/03/28 01:22:32;;;;;;;2.88;2.33;;;10.30;99.90;;;;;;4932939;29;20253;-73
2024/03/28 01:24:58;;;;;;;3.03;1.90;;;10.20;99.90;;;;;;4932645;29;20180;-73
2024/03/28 01:27:24;;;;;;;3.70;2.60;;;10.20;99.90;;;;;;4948841;28;20691;-74
2024/03/28 01:29:53;;;;;;;2.80;1.83;;;10.20;99.90;;;;;;4948821;28;21211;-75
2024/03/28 01:32:19;;;;;;;1.98;1.60;;;10.20;99.90;;;;;;4948623;28;20212;-75
2024/03/28 01:34:48;;;;;;;2.40;1.60;;;10.10;99.90;;;;;;4948778;28;20200;-73
2024/03/28 01:37:13;;;;;;;2.83;2.00;;;10.10;99.90;;;;;;4957221;28;20624;-75
2024/03/28 01:39:40;;;;;;;3.10;2.07;;;10.10;99.90;;;;;;5023140;28;20574;-74
2024/03/28 01:42:06;;;;;;;3.35;2.33;;;10.00;99.90;;;;;;4959543;28;20197;-74
2024/03/28 01:44:31;;;;;;;3.80;2.20;;;10.00;99.90;;;;;;4932773;28;20172;-74
2024/03/28 01:46:57;;;;;;;2.70;2.00;;;10.00;99.90;;;;;;4949631;28;20187;-74
2024/03/28 01:49:26;;;;;;;3.97;1.83;;;10.00;99.90;;;;;;4950242;28;20184;-74
2024/03/28 01:51:54;;;;;;;1.88;1.30;;;10.00;99.90;;;;;;4949846;28;20659;-74
2024/03/28 01:54:21;;;;;;;2.70;1.50;;;10.00;99.90;;;;;;4949570;28;20921;-74
2024/03/28 01:56:47;;;;;;;2.13;1.60;;;10.00;99.90;;;;;;4949682;28;20243;-73
2024/03/28 01:59:15;;;;;;;2.72;1.30;;;10.00;99.90;;;;;;4949878;28;20604;-74
2024/03/28 02:01:45;;;;;;;3.50;1.70;;;10.00;99.90;;;;;;4949847;28;20183;-74
2024/03/28 02:04:12;;;;;;;3.00;1.95;;;10.00;99.90;;;;;;4948560;28;20180;-74
2024/03/28 02:06:38;;;;;;;2.30;2.03;;;9.90;99.90;;;;;;4949463;28;20179;-74
2024/03/28 02:09:05;;;;;;;2.30;1.43;;;9.90;99.90;;;;;;4949578;28;20235;-74
2024/03/28 02:11:32;;;;;;;5.07;1.90;;;9.90;99.90;;;;;;4948031;28;20231;-74
2024/03/28 02:14:01;;;;;;;3.53;2.08;;;9.90;99.90;;;;;;4949477;28;20212;-74
2024/03/28 02:16:27;;;;;;;2.40;1.55;;;9.90;99.90;;;;;;4949244;28;20208;-74
2024/03/28 02:18:59;;;;;;;2.70;1.60;;;9.90;99.90;;;;;;4949553;28;20327;-74
2024/03/28 02:21:25;;;;;;;2.10;1.42;;;9.90;99.90;;;;;;4949420;28;20231;-74
2024/03/28 02:23:51;;;;;;;4.00;1.90;;;9.90;99.90;;;;;;4957412;28;20185;-75
2024/03/28 02:26:19;;;;;;;2.70;1.95;;;9.80;99.90;;;;;;4948085;28;21150;-74
2024/03/28 02:28:45;;;;;;;2.30;1.80;;;9.80;99.90;;;;;;4952044;28;20658;-74
2024/03/28 02:31:11;;;;;;;4.13;2.65;;;9.80;99.90;;;;;;4954903;28;20543;-80
2024/03/28 02:33:37;;;;;;;3.00;2.43;;;9.80;99.90;;;;;;4960835;28;20367;-80
2024/03/28 02:36:04;;;;;;;2.60;2.00;;;9.80;99.90;;;;;;4936322;28;20181;-79
2024/03/28 02:38:30;;;;;;;3.05;2.38;;;9.80;99.90;;;;;;4951389;28;20671;-79
2024/03/28 02:40:56;;;;;;;3.50;2.08;;;9.70;99.90;;;;;;4953209;28;20176;-79
2024/03/28 02:43:22;;;;;;;3.07;2.20;;;9.70;99.90;;;;;;4953192;29;20180;-80
2024/03/28 02:45:48;;;;;;;3.85;2.45;;;9.70;99.90;;;;;;4951614;29;20606;-80
2024/03/28 02:48:14;;;;;;;2.70;1.90;;;9.70;99.90;;;;;;4953222;28;20192;-79
2024/03/28 02:50:40;;;;;;;3.77;2.80;;;9.70;99.90;;;;;;4951959;29;20188;-79
2024/03/28 02:53:05;;;;;;;4.43;2.23;;;9.60;99.90;;;;;;4953093;28;20705;-79
2024/03/28 02:55:31;;;;;;;3.23;2.37;;;9.60;99.90;;;;;;4953031;28;20670;-79
2024/03/28 02:57:57;;;;;;;4.27;2.80;;;9.60;99.90;;;;;;4937488;29;20183;-80
2024/03/28 03:00:22;;;;;;;2.80;2.23;;;9.60;99.90;;;;;;4952491;28;20646;-79
2024/03/28 03:02:48;;;;;;;3.60;1.93;;;9.60;99.90;;;;;;4964913;28;20201;-79
2024/03/28 03:05:14;;;;;;;2.50;2.20;;;9.50;99.90;;;;;;4961114;28;20227;-79
2024/03/28 03:07:40;;;;;;;6.33;4.20;;;9.50;99.90;;;;;;4960965;28;20575;-79
2024/03/28 03:10:06;;;;;;;3.80;2.60;;;9.50;99.90;;;;;;4953536;29;20196;-79
2024/03/28 03:12:32;;;;;;;4.10;2.90;;;9.40;99.90;;;;;;4935465;29;20219;-79
2024/03/28 03:14:58;;;;;;;3.67;3.07;;;9.40;99.90;;;;;;4952304;28;20678;-80
2024/03/28 03:17:25;;;;;;;4.90;2.87;;;9.40;99.90;;;;;;4957462;29;20630;-80
2024/03/28 03:19:55;;;;;;;3.75;3.33;;;9.40;99.90;;;;;;4956754;28;20266;-80
2024/03/28 03:22:22;;;;;;;3.70;3.13;;;9.40;99.90;;;;;;4935754;29;20788;-80
2024/03/28 03:24:48;;;;;;;3.38;2.70;;;9.30;99.90;;;;;;4951591;29;20230;-80
2024/03/28 03:27:20;;;;;;;3.78;3.03;;;9.30;99.90;;;;;;4951495;28;20188;-80
2024/03/28 03:35:20;;;;;;;3.15;2.65;;;9.30;99.90;;;;;;4952132;28;20278;-80
2024/03/28 03:37:46;;;;;;;4.00;3.47;;;9.30;99.90;;;;;;4950504;28;20261;-80
2024/03/28 03:40:12;;;;;;;4.50;2.93;;;9.30;99.90;;;;;;5003649;28;20580;-80
2024/03/28 03:42:39;;;;;;;4.10;2.90;;;9.30;99.90;;;;;;4987964;28;20200;-80
2024/03/28 03:45:05;;;;;;;2.93;2.20;;;9.20;99.90;;;;;;4952526;28;20680;-80
2024/03/28 03:47:31;;;;;;;4.15;2.60;;;9.20;99.90;;;;;;4937166;29;20259;-80
2024/03/28 03:50:00;;;;;;;3.28;2.30;;;9.20;99.90;;;;;;4958861;28;20266;-75
2024/03/28 03:52:25;;;;;;;4.22;2.33;;;9.20;99.90;;;;;;4950678;28;20201;-75
2024/03/28 03:54:52;;;;;;;4.83;2.53;;;9.30;99.90;;;;;;4951580;29;20681;-75
2024/03/28 03:57:18;;;;;;;3.17;2.80;;;9.20;99.90;;;;;;4934095;28;20191;-75
2024/03/28 03:59:44;;;;;;;3.17;2.80;;;9.20;99.90;;;;;;4959642;28;20578;-75
2024/03/28 04:02:10;;;;;;;4.00;3.07;;;9.20;99.90;;;;;;4952350;28;20204;-75
2024/03/28 04:04:35;;;;;;;2.63;2.07;;;9.20;99.90;;;;;;4957914;28;20267;-75
2024/03/28 04:07:01;;;;;;;4.83;3.03;;;9.20;99.90;;;;;;4951952;28;20251;-75
2024/03/28 04:09:27;;;;;;;4.10;2.87;;;9.20;99.90;;;;;;4934824;29;20180;-77
2024/03/28 04:11:53;;;;;;;4.80;3.00;;;9.20;99.90;;;;;;4952427;28;20215;-76
2024/03/28 04:14:18;;;;;;;3.97;3.33;;;9.10;99.90;;;;;;4951316;29;20233;-76
2024/03/28 04:16:44;;;;;;;3.00;2.70;;;9.10;99.90;;;;;;4953997;29;20187;-76
2024/03/28 04:19:11;;;;;;;4.55;3.05;;;9.10;99.90;;;;;;4950576;29;20181;-76
2024/03/28 04:21:37;;;;;;;4.78;2.72;;;9.10;99.90;;;;;;4951420;28;20234;-76
2024/03/28 04:24:03;;;;;;;3.00;2.70;;;9.10;99.90;;;;;;4951507;28;20180;-76
2024/03/28 04:26:30;;;;;;;3.80;3.20;;;9.10;99.90;;;;;;4950256;28;20986;-77
2024/03/28 04:28:55;;;;;;;5.15;3.40;;;9.10;99.90;;;;;;4934174;29;20172;-76
2024/03/28 04:31:21;;;;;;;3.50;2.93;;;9.10;99.90;;;;;;4951855;28;20204;-76
2024/03/28 04:33:47;;;;;;;3.50;2.60;;;9.00;99.90;;;;;;4951461;28;20176;-77
2024/03/28 04:36:14;;;;;;;2.72;2.50;;;9.00;99.90;;;;;;4958057;28;20234;-76
2024/03/28 04:38:42;;;;;;;3.00;2.70;;;9.00;99.90;;;;;;4949797;28;20181;-76
2024/03/28 04:41:08;;;;;;;4.68;3.10;;;9.00;99.90;;;;;;4950957;28;20235;-76
2024/03/28 04:43:35;;;;;;;2.83;2.42;;;9.00;99.90;;;;;;4959013;28;20176;-76
2024/03/28 04:46:01;;;;;;;4.50;3.28;;;9.00;99.90;;;;;;4950783;28;20205;-77
2024/03/28 04:48:27;;;;;;;4.18;3.40;;;8.90;99.90;;;;;;4950753;28;20669;-76
2024/03/28 04:50:53;;;;;;;5.37;3.23;;;8.90;99.90;;;;;;4950243;28;20203;-76
2024/03/28 04:53:19;;;;;;;3.67;3.00;;;8.80;99.90;;;;;;4953922;28;20188;-76
2024/03/28 04:55:45;;;;;;;4.60;3.35;;;8.90;99.90;;;;;;4950926;28;20206;-76
2024/03/28 04:58:11;;;;;;;5.17;3.90;;;8.80;99.90;;;;;;4950750;29;20263;-76
2024/03/28 05:00:38;;;;;;;3.80;3.13;;;8.80;99.90;;;;;;4950956;29;21115;-76
2024/03/28 05:03:04;;;;;;;3.38;2.90;;;8.80;99.90;;;;;;4949625;28;20295;-76
2024/03/28 05:05:29;;;;;;;5.53;3.70;;;8.80;99.90;;;;;;4951275;28;20200;-76
2024/03/28 05:07:55;;;;;;;4.00;3.03;;;8.70;99.90;;;;;;4955532;28;20184;-76
2024/03/28 05:10:21;;;;;;;3.80;3.40;;;8.70;99.90;;;;;;4955272;28;20267;-76
2024/03/28 05:12:47;;;;;;;5.87;4.23;;;8.70;99.90;;;;;;4953121;28;20315;-76
2024/03/28 05:15:12;;;;;;;5.60;3.90;;;8.70;99.90;;;;;;4964828;28;20298;-76
2024/03/28 05:17:38;;;;;;;4.47;3.90;;;8.70;99.90;;;;;;4957857;28;20199;-76
2024/03/28 05:20:05;;;;;;;4.37;3.67;;;8.70;99.90;;;;;;4951028;28;20196;-75
2024/03/28 05:22:32;;;;;;;3.33;2.95;;;8.60;99.90;;;;;;4950418;28;20192;-76
2024/03/28 05:24:58;;;;;;;4.07;3.17;;;8.70;99.90;;;;;;4949422;28;20548;-76
2024/03/28 05:27:23;;;;;;;4.40;3.43;;;8.70;99.90;;;;;;4931336;28;21216;-77
2024/03/28 05:29:49;;;;;;;5.10;4.00;;;8.70;99.90;;;;;;4982781;28;20208;-76
2024/03/28 05:32:15;;;;;;;3.73;3.10;;;8.70;99.90;;;;;;4964602;28;20678;-76
2024/03/28 05:34:42;;;;;;;4.40;4.00;;;8.70;99.90;;;;;;4948951;28;20673;-76
2024/03/28 05:37:08;;;;;;;4.35;3.08;;;8.70;99.90;;;;;;4947958;28;20586;-77
2024/03/28 05:39:34;;;;;;;4.38;3.85;;;8.70;99.90;;;;;;4963060;28;20176;-76
2024/03/28 05:42:00;;;;;;;5.28;2.72;;;8.70;99.90;;;;;;5013947;28;20569;-76
2024/03/28 05:44:26;;;;;;;3.63;2.95;;;8.70;99.90;;;;;;4951170;28;20187;-76
2024/03/28 05:46:52;;;;;;;4.40;3.50;;;8.70;99.90;;;;;;4955398;28;20539;-76
2024/03/28 05:49:18;;;;;;;3.70;3.20;;;8.70;99.90;;;;;;4950003;28;20184;-76
2024/03/28 05:51:43;;;;;;;5.03;2.50;;;8.70;99.90;;;;;;4949822;28;20562;-76
2024/03/28 05:54:09;;;;;;;4.00;2.90;;;8.70;99.90;;;;;;4948568;29;20196;-76
2024/03/28 05:56:35;;;;;;;4.57;2.50;;;8.70;99.90;;;;;;4949499;28;20669;-76
2024/03/28 05:59:00;;;;;;;3.50;2.20;;;8.80;99.90;;;;;;4956679;28;20207;-76
2024/03/28 06:01:26;;;;;;;3.33;2.08;;;8.80;99.90;;;;;;4950713;28;20291;-76
2024/03/28 06:03:52;;;;;;;3.73;2.60;;;8.80;99.90;;;;;;4953471;28;20284;-77
2024/03/28 06:06:18;;;;;;;3.47;2.00;;;8.80;99.90;;;;;;4953040;28;20176;-77
2024/03/28 06:08:44;;;;;;;3.13;2.38;;;8.80;99.90;;;;;;4961245;28;20175;-77
2024/03/28 06:11:10;;;;;;;3.13;2.20;;;8.90;99.90;;;;;;4956483;28;20222;-77
2024/03/28 06:13:36;;;;;;;3.20;2.20;;;8.90;99.90;;;;;;4951953;29;20614;-77
2024/03/28 06:16:02;;;;;;;3.17;2.20;;;8.90;99.90;;;;;;4958383;28;21137;-76
2024/03/28 06:18:29;;;;;;;4.30;2.33;;;9.00;99.90;;;;;;4954309;28;20561;-77
2024/03/28 06:21:05;;;;;;;3.03;2.00;;;9.00;99.90;;;;;;4953165;28;21030;-77
2024/03/28 06:23:31;;;;;;;2.50;1.63;;;9.10;99.90;;;;;;4951769;29;20180;-77
2024/03/28 06:26:04;;;;;;;3.08;1.83;;;9.20;99.90;;;;;;4935291;28;20176;-77
2024/03/28 06:28:31;;;;;;;2.92;2.40;;;9.40;99.90;;;;;;4953094;28;20188;-76
2024/03/28 06:30:59;;;;;;;2.50;1.60;;;9.50;99.90;;;;;;4952938;28;20237;-77
2024/03/28 06:33:28;;;;;;;2.05;1.40;;;9.70;99.90;;;;;;4942841;28;20558;-77
2024/03/28 06:35:53;;;;;;;2.30;1.60;;;9.80;99.90;;;;;;4952179;28;20219;-76
2024/03/28 06:38:19;;;;;;;2.87;1.93;;;9.90;99.90;;;;;;4999796;28;20542;-77
2024/03/28 06:40:45;;;;;;;4.73;2.53;;;10.00;99.90;;;;;;4989015;28;20560;-77
2024/03/28 06:43:11;;;;;;;2.88;1.83;;;10.10;99.90;;;;;;4951640;28;20201;-77
2024/03/28 06:45:37;;;;;;;1.70;1.05;;;10.20;99.90;;;;;;4958509;29;20184;-76
2024/03/28 06:48:03;;;;;;;2.00;1.10;;;10.30;99.90;;;;;;4952812;28;20187;-77
2024/03/28 06:50:29;;;;;;;2.80;1.45;;;10.40;99.90;;;;;;4952677;28;20172;-76
2024/03/28 06:52:55;;;;;;;1.90;1.30;;;10.50;99.90;;;;;;4958172;28;20194;-77
2024/03/28 06:55:21;;;;;;;3.10;1.60;;;10.70;99.90;;;;;;4953290;28;20204;-77
2024/03/28 06:57:46;;;;;;;2.30;1.30;;;10.70;99.90;;;;;;4952523;29;20734;-77
2024/03/28 07:00:13;;;;;;;2.63;1.10;;;10.90;99.90;;;;;;4952732;28;20920;-78
2024/03/28 07:02:39;;;;;;;5.07;1.02;;;10.90;99.90;;;;;;4951343;28;20283;-77
2024/03/28 07:05:05;;;;;;;2.70;1.30;;;10.90;99.90;;;;;;4951047;28;20603;-78
2024/03/28 07:07:31;;;;;;;3.10;1.00;;;10.90;99.90;;;;;;4949773;28;20603;-78
2024/03/28 07:09:57;;;;;;;2.60;1.50;;;10.90;99.90;;;;;;4947639;28;20172;-78
2024/03/28 07:12:23;;;;;;;3.63;1.02;;;10.90;99.90;;;;;;4948403;28;20228;-77
2024/03/28 07:14:49;;;;;;;2.27;1.10;;;10.80;99.90;;;;;;4952696;28;20274;-78
2024/03/28 07:17:15;;;;;;;2.53;1.30;;;10.80;99.90;;;;;;4992592;28;20670;-78
2024/03/28 07:19:41;;;;;;;1.90;1.40;;;10.80;99.90;;;;;;4941586;28;20180;-78
2024/03/28 07:22:08;;;;;;;2.57;1.00;;;10.70;99.90;;;;;;4952755;28;20258;-79
2024/03/28 07:24:35;;;;;;;3.05;1.10;;;10.70;99.90;;;;;;4948125;28;20196;-77
2024/03/28 07:27:01;;;;;;;2.95;1.25;;;10.70;99.90;;;;;;4950985;28;20200;-77
2024/03/28 07:29:27;;;;;;;2.05;1.23;;;10.70;99.90;;;;;;4950796;28;20184;-78
2024/03/28 07:31:53;;;;;;;2.47;1.10;;;10.60;99.90;;;;;;4950622;28;20247;-77
2024/03/28 07:34:19;;;;;;;1.70;0.90;;;10.50;99.90;;;;;;4950772;28;20250;-78
2024/03/28 07:36:45;;;;;;;2.25;1.20;;;10.50;99.90;;;;;;4947009;28;20591;-78
2024/03/28 07:39:13;;;;;;;2.40;1.37;;;10.30;99.90;;;;;;4950509;28;20180;-78
2024/03/28 07:41:40;;;;;;;5.20;1.70;;;10.20;99.90;;;;;;4951415;28;20707;-77
2024/03/28 07:44:06;;;;;;;2.60;1.08;;;10.10;99.90;;;;;;4950590;28;20176;-78
2024/03/28 07:46:31;;;;;;;1.87;1.20;;;10.00;99.90;;;;;;4951942;28;20788;-77
2024/03/28 07:48:57;;;;;;;2.87;1.40;;;9.80;99.90;;;;;;4948105;28;20666;-77
2024/03/28 07:51:23;;;;;;;2.43;1.60;;;9.80;99.90;;;;;;4944578;28;20204;-77
2024/03/28 07:53:51;;;;;;;3.83;1.30;;;9.70;99.90;;;;;;4982826;28;20173;-76
2024/03/28 07:56:16;;;;;;;2.30;0.85;;;9.50;99.90;;;;;;4962520;28;20188;-77
2024/03/28 07:58:42;;;;;;;3.83;0.90;;;9.50;99.90;;;;;;4953754;28;20179;-77
2024/03/28 08:01:08;;;;;;;1.30;0.70;;;9.40;99.90;;;;;;4949495;28;20543;-77
2024/03/28 08:03:35;;;;;;;1.60;0.70;;;9.40;99.90;;;;;;4963277;28;20343;-76
2024/03/28 08:06:04;;;;;;;1.83;0.70;;;9.40;99.90;;;;;;4978813;28;20864;-77
2024/03/28 08:08:31;;;;;;;1.65;0.70;;;9.40;99.90;;;;;;4949925;29;20211;-77
2024/03/28 08:10:57;;;;;;;1.88;1.20;;;9.40;99.90;;;;;;4944586;28;20180;-77
2024/03/28 08:13:23;;;;;;;1.83;0.80;;;9.40;99.90;;;;;;4954366;28;20188;-76
2024/03/28 08:15:48;;;;;;;1.60;0.80;;;9.40;99.90;;;;;;4928975;29;20593;-77
2024/03/28 08:18:14;;;;;;;2.93;1.00;;;9.40;99.90;;;;;;4951451;28;20173;-76
2024/03/28 08:20:40;;;;;;;2.37;0.80;;;9.30;99.90;;;;;;4950880;28;20981;-77
2024/03/28 08:23:05;;;;;;;1.60;0.90;;;9.30;99.90;;;;;;4951012;28;20196;-76
2024/03/28 08:25:32;;;;;;;2.07;1.00;;;9.30;99.90;;;;;;4949432;28;20184;-76
2024/03/28 08:27:58;;;;;;;1.40;0.70;;;9.30;99.90;;;;;;4949693;29;20653;-76
2024/03/28 08:30:24;;;;;;;1.90;0.80;;;9.30;99.90;;;;;;4949541;29;20267;-77
2024/03/28 08:32:55;;;;;;;1.90;0.80;;;9.30;99.90;;;;;;4948065;28;20616;-76
2024/03/28 08:35:22;;;;;;;2.08;0.80;;;9.30;99.90;;;;;;4972070;28;20211;-77
2024/03/28 08:37:48;;;;;;;1.65;0.90;;;9.30;99.90;;;;;;4951308;28;20176;-77
2024/03/28 08:40:14;;;;;;;1.77;0.68;;;9.30;99.90;;;;;;4950900;28;20297;-77
2024/03/28 08:42:40;;;;;;;2.60;0.70;;;9.30;99.90;;;;;;4943628;28;20239;-76
2024/03/28 08:45:11;;;;;;;2.27;0.60;;;9.40;99.90;;;;;;4958258;28;20229;-77
2024/03/28 08:47:37;;;;;;;3.03;0.77;;;9.50;99.90;;;;;;4950498;28;20596;-77
2024/03/28 08:50:04;;;;;;;2.08;0.80;;;9.50;99.90;;;;;;4950119;28;20185;-76
2024/03/28 08:52:30;;;;;;;1.73;0.63;;;9.50;99.90;;;;;;4946793;28;20216;-76
2024/03/28 08:54:57;;;;;;;1.40;0.60;;;9.60;99.90;;;;;;4967908;28;20298;-76
2024/03/28 08:57:25;;;;;;;1.50;0.80;;;9.60;99.90;;;;;;4949790;28;20180;-77
2024/03/28 08:59:51;;;;;;;1.90;1.13;;;9.60;99.90;;;;;;4949287;28;20180;-76
2024/03/28 09:02:21;;;;;;;1.47;0.80;;;9.60;99.90;;;;;;4917521;29;20192;-77
2024/03/28 09:04:50;;;;;;;2.38;0.75;;;9.60;99.90;;;;;;4992789;28;20191;-77
2024/03/28 09:07:16;;;;;;;1.73;0.70;;;9.60;99.90;;;;;;4949542;28;20184;-77
2024/03/28 09:09:42;;;;;;;1.70;0.75;;;9.70;99.90;;;;;;4966895;28;20238;-77
2024/03/28 09:12:10;;;;;;;2.25;0.75;;;9.70;99.90;;;;;;4950082;28;20238;-76
2024/03/28 09:14:37;;;;;;;1.80;0.75;;;9.70;99.90;;;;;;4949978;28;20223;-76
2024/03/28 09:17:03;;;;;;;1.30;0.60;;;9.80;99.90;;;;;;4947902;28;20191;-76
2024/03/28 09:19:28;;;;;;;1.60;0.80;;;9.90;99.90;;;;;;4950261;28;20168;-76
2024/03/28 09:21:54;;;;;;;1.53;0.70;;;9.90;99.90;;;;;;4948421;28;20292;-76
2024/03/28 09:24:21;;;;;;;1.47;0.63;;;10.00;99.90;;;;;;4986421;28;20805;-76
2024/03/28 09:26:48;;;;;;;2.70;0.90;;;10.00;99.90;;;;;;4948371;28;20246;-76
2024/03/28 09:29:19;;;;;;;1.38;0.77;;;10.10;99.90;;;;;;4950197;28;20187;-77
2024/03/28 09:31:48;;;;;;;2.10;0.80;;;10.10;99.90;;;;;;4949001;28;20602;-76
2024/03/28 09:34:17;;;;;;;2.55;0.80;;;10.20;99.90;;;;;;4949876;28;20651;-76
2024/03/28 09:36:43;;;;;;;1.83;1.10;;;10.30;99.90;;;;;;4946376;28;20273;-76
2024/03/28 09:39:12;;;;;;;2.07;0.90;;;10.40;99.90;;;;;;4948222;28;20263;-77
2024/03/28 09:41:43;;;;;;;2.47;0.80;;;10.40;99.90;;;;;;4948659;28;21060;-76
2024/03/28 09:44:18;;;;;;;2.00;0.70;;;10.50;99.90;;;;;;4951806;28;20192;-77
2024/03/28 09:46:46;;;;;;;2.47;0.80;;;10.60;99.90;;;;;;4948563;28;20649;-77
2024/03/28 09:49:15;;;;;;;1.50;0.60;;;10.70;99.90;;;;;;4950861;28;20192;-76
2024/03/28 09:51:42;;;;;;;1.27;0.50;;;10.70;99.90;;;;;;4945651;28;20618;-77
2024/03/28 09:54:08;;;;;;;1.70;0.70;;;10.80;99.90;;;;;;4981618;28;20204;-76
2024/03/28 09:56:35;;;;;;;1.40;0.50;;;10.80;99.90;;;;;;4954773;28;20180;-76
2024/03/28 09:59:01;;;;;;;2.65;0.40;;;10.80;99.90;;;;;;4932492;28;20176;-76
2024/03/28 10:01:28;;;;;;;1.40;0.43;;;10.80;99.90;;;;;;4948113;28;20208;-78
2024/03/28 10:04:15;;;;;;;1.45;0.47;;;10.80;99.90;;;;;;4948636;28;20176;-77
2024/03/28 10:06:48;;;;;;;1.55;0.50;;;10.70;99.90;;;;;;4949609;28;20221;-77
2024/03/28 10:09:14;;;;;;;1.55;0.50;;;10.70;99.90;;;;;;4949433;28;20176;-76
2024/03/28 10:11:41;;;;;;;1.17;0.40;;;10.70;99.90;;;;;;4949559;28;20286;-77
2024/03/28 10:14:14;;;;;;;1.25;0.40;;;10.70;99.90;;;;;;4948351;28;20207;-76
2024/03/28 10:16:42;;;;;;;1.40;0.50;;;10.80;99.90;;;;;;4931859;28;20183;-77
2024/03/28 10:19:08;;;;;;;1.50;0.50;;;10.80;99.90;;;;;;4968155;28;20188;-77
2024/03/28 10:21:36;;;;;;;1.10;0.40;;;10.90;99.90;;;;;;4949615;28;20349;-77
2024/03/28 10:24:14;;;;;;;1.50;0.50;;;11.00;99.90;;;;;;4949559;28;20177;-77
2024/03/28 10:26:40;;;;;;;1.20;0.50;;;11.00;99.90;;;;;;4951575;28;20183;-77
2024/03/28 10:29:05;;;;;;;1.57;0.50;;;11.20;99.90;;;;;;4949504;28;20540;-77
2024/03/28 10:31:31;;;;;;;1.20;0.50;;;11.30;99.90;;;;;;4948060;28;20662;-77
2024/03/28 10:33:57;;;;;;;1.93;0.57;;;11.40;99.90;;;;;;4949249;28;20679;-77
2024/03/28 10:36:24;;;;;;;1.60;0.60;;;11.60;99.90;;;;;;4955554;28;20186;-78
2024/03/28 10:39:01;;;;;;;1.73;0.50;;;11.80;99.90;;;;;;4965033;28;20698;-78
2024/03/28 10:41:29;;;;;;;1.40;0.50;;;11.90;99.90;;;;;;4977344;28;20207;-75
2024/03/28 10:43:59;;;;;;;2.20;0.57;;;12.20;99.90;;;;;;4948008;28;20222;-75
2024/03/28 10:46:26;;;;;;;1.50;0.60;;;12.40;99.90;;;;;;4948640;28;20310;-75
2024/03/28 10:48:54;;;;;;;1.23;0.50;;;12.80;99.90;;;;;;4943219;28;20585;-76
2024/03/28 10:51:30;;;;;;;2.30;0.60;;;13.30;99.90;;;;;;4992850;28;20723;-75
2024/03/28 10:54:01;;;;;;;3.07;0.60;;;13.90;99.90;;;;;;4944061;28;20626;-75
2024/03/28 10:56:31;;;;;;;1.70;0.50;;;14.60;99.90;;;;;;4956185;28;20679;-74
2024/03/28 10:59:00;;;;;;;1.20;0.40;;;15.40;99.90;;;;;;4948705;28;20615;-75
2024/03/28 11:01:36;;;;;;;1.43;0.60;;;16.20;99.90;;;;;;4952675;28;20681;-74
2024/03/28 11:04:02;;;;;;;1.90;0.50;;;16.90;99.90;;;;;;4955776;28;20580;-74
2024/03/28 11:06:28;;;;;;;1.40;0.53;;;17.60;99.90;;;;;;4953549;28;20603;-75
2024/03/28 11:08:57;;;;;;;1.20;0.40;;;18.20;99.90;;;;;;4951916;29;20696;-74
2024/03/28 11:11:23;;;;;;;1.20;0.40;;;18.70;99.90;;;;;;4952621;28;20627;-74
2024/03/28 11:13:49;;;;;;;1.23;0.40;;;18.90;99.90;;;;;;4951738;28;21149;-74
2024/03/28 11:16:19;;;;;;;1.10;0.40;;;19.00;99.90;;;;;;4949113;28;20611;-74
2024/03/28 11:18:46;;;;;;;1.50;0.40;;;19.00;99.90;;;;;;4969316;28;20595;-73
2024/03/28 11:21:12;;;;;;;2.13;0.50;;;19.10;99.90;;;;;;4957311;28;20595;-74
2024/03/28 11:23:45;;;;;;;1.20;0.40;;;19.20;99.90;;;;;;4951999;28;20588;-74
2024/03/28 11:26:20;;;;;;;2.07;0.50;;;19.40;99.90;;;;;;4951681;28;20181;-74
2024/03/28 11:28:45;;;;;;;2.03;1.00;;;19.40;99.90;;;;;;4950662;28;20611;-75
2024/03/28 11:31:13;;;;;;;5.50;3.50;;;19.50;99.90;;;;;;4950213;28;20954;-74
2024/03/28 11:33:43;;;;;;;6.23;2.30;;;19.60;99.90;;;;;;4950424;29;20208;-74
2024/03/28 11:36:09;;;;;;;2.10;0.80;;;19.70;99.90;;;;;;4944961;28;20658;-77
2024/03/28 11:38:36;;;;;;;2.30;1.23;;;19.90;99.90;;;;;;4949284;28;20679;-78
2024/03/28 11:41:06;;;;;;;2.87;1.40;;;20.10;99.90;;;;;;4930642;28;20631;-78
2024/03/28 11:43:32;;;;;;;1.80;0.70;;;20.20;99.90;;;;;;4966322;28;20649;-77
2024/03/28 11:46:03;;;;;;;1.93;0.60;;;20.30;99.90;;;;;;4936686;28;20607;-75
2024/03/28 11:48:33;;;;;;;2.33;0.77;;;20.20;99.90;;;;;;4984338;28;20216;-75
2024/03/28 11:51:05;;;;;;;2.93;0.90;;;20.10;99.90;;;;;;4948852;28;20593;-75
2024/03/28 11:53:42;;;;;;;1.40;0.43;;;19.90;99.90;;;;;;4967080;28;20696;-75
2024/03/28 11:56:13;;;;;;;2.20;1.20;;;19.80;99.90;;;;;;4955331;28;20634;-74
2024/03/28 11:58:39;;;;;;;2.30;0.90;;;19.60;99.90;;;;;;4957950;28;20603;-75
2024/03/28 12:01:05;;;;;;;1.60;0.70;;;19.50;99.90;;;;;;4963915;28;20607;-74
2024/03/28 12:03:32;;;;;;;1.50;0.60;;;19.30;99.90;;;;;;4949983;28;20675;-74
2024/03/28 12:05:59;;;;;;;1.70;0.60;;;19.20;99.90;;;;;;4953640;28;20597;-74
2024/03/28 12:08:27;;;;;;;1.40;0.50;;;19.00;99.90;;;;;;4952210;28;20596;-75
2024/03/28 12:11:00;;;;;;;1.40;0.50;;;18.80;99.90;;;;;;4949727;28;20592;-74
2024/03/28 12:13:26;;;;;;;2.30;0.60;;;18.60;99.90;;;;;;4962448;28;20603;-75
2024/03/28 12:15:56;;;;;;;1.80;0.50;;;18.40;99.90;;;;;;4949391;28;20952;-74
2024/03/28 12:18:22;;;;;;;1.30;0.60;;;18.20;99.90;;;;;;4951610;28;20600;-75
2024/03/28 12:20:48;;;;;;;2.03;0.50;;;17.90;99.90;;;;;;4960235;28;20995;-74
2024/03/28 12:23:14;;;;;;;1.30;0.40;;;17.70;99.90;;;;;;4972052;28;20189;-75
2024/03/28 12:25:46;;;;;;;1.40;0.50;;;17.40;99.90;;;;;;4950870;28;20193;-75
2024/03/28 12:28:17;;;;;;;1.50;0.43;;;17.10;99.90;;;;;;4951021;28;21008;-74
2024/03/28 12:30:53;;;;;;;3.00;0.50;;;16.90;99.90;;;;;;4950618;28;20631;-75
2024/03/28 12:33:20;;;;;;;1.20;0.30;;;16.80;99.90;;;;;;4931162;28;20628;-75
2024/03/28 12:35:45;;;;;;;1.40;0.40;;;16.80;99.90;;;;;;4949359;28;20730;-75
2024/03/28 12:38:15;;;;;;;1.40;0.50;;;16.80;99.90;;;;;;4950968;29;20680;-74
2024/03/28 12:40:45;;;;;;;1.20;0.40;;;16.80;99.90;;;;;;4952347;28;20188;-74
2024/03/28 12:43:15;;;;;;;1.97;0.43;;;16.80;99.90;;;;;;4960688;28;20681;-74
2024/03/28 12:45:41;;;;;;;1.60;0.53;;;16.80;99.90;;;;;;4958135;28;20659;-74
2024/03/28 12:48:09;;;;;;;2.00;0.77;;;16.90;99.90;;;;;;4950793;28;20962;-74
2024/03/28 12:50:37;;;;;;;1.80;0.50;;;17.00;99.90;;;;;;4950551;28;20624;-74
2024/03/28 12:53:04;;;;;;;1.30;0.50;;;17.10;99.90;;;;;;4951836;28;20667;-74
2024/03/28 12:55:30;;;;;;;1.50;0.40;;;17.10;99.90;;;;;;4953632;28;20640;-74